Time;durP1;ratioP1;P1;durP2;ratioP2;P2;SDS_P1;SDS_P2;PMS_P1;PMS_P2;Temp;Humidity;BMP_temperature;BMP_pressure;BME280_temperature;BME280_humidity;BME280_pressure;Samples;Min_cycle;Max_cycle;Signal;HPM_P1;HPM_P2
2023/01/14 13:04:40;;;;;;;2.78;0.90;;;17.70;71.00;;;19.52;49.84;99714.88;529891;27;20762;-82
2023/01/14 13:05:08;;;;;;;2.00;0.95;;;17.80;66.60;;;19.07;51.33;99725.97;523821;28;1475;-80
2023/01/14 13:05:34;;;;;;;2.42;1.05;;;17.70;63.20;;;18.76;52.00;99715.75;520487;28;1012;-83
2023/01/14 13:05:53;;;;;;;3.63;1.27;;;17.70;62.10;;;18.48;52.78;99722.91;518772;28;986;-83
2023/01/14 13:06:18;;;;;;;5.40;1.40;;;17.80;61.30;;;18.32;53.08;99712.06;490465;28;9495;-83
2023/01/14 13:06:38;;;;;;;3.78;1.25;;;17.80;61.00;;;18.19;53.66;99720.53;487994;28;12537;-83
2023/01/14 13:09:21;;;;;;;3.53;1.15;;;18.00;69.20;;;18.40;55.09;99706.22;529571;27;20428;-79
2023/01/14 13:15:04;;;;;;;1.92;1.27;;;19.00;60.10;;;;;;474492;27;1911542;-80
2023/01/14 13:21:04;;;;;;;2.83;1.30;;;19.90;54.70;;;;;;463517;29;6192;-84
2023/01/14 13:25:43;;;;;;;2.97;1.00;;;20.70;55.80;;;18.25;54.85;99662.53;529902;27;20376;-77
2023/01/14 13:25:59;;;;;;;2.20;0.93;;;20.70;55.40;;;18.22;54.78;99677.41;524457;28;1315;-79
2023/01/14 13:26:56;;;;;;;1.63;1.00;;;20.80;53.90;;;18.08;55.02;99674.22;521549;28;1093;-82
2023/01/14 13:27:36;;;;;;;2.22;0.90;;;20.80;52.90;;;17.99;55.66;99675.69;467093;28;10439;-81
2023/01/14 13:27:54;;;;;;;3.80;1.40;;;20.80;52.30;;;17.95;55.55;99674.53;482537;28;11710;-79
2023/01/14 13:28:53;;;;;;;3.67;1.27;;;20.90;52.20;;;17.89;55.82;99670.09;520935;28;1891;-80
2023/01/14 13:29:24;;;;;;;2.85;1.00;;;20.90;52.00;;;17.83;55.90;99667.53;528145;28;1380;-79
2023/01/14 13:29:42;;;;;;;3.67;1.00;;;20.90;51.80;;;17.82;56.12;99672.13;525966;28;1168;-79
2023/01/14 13:30:44;;;;;;;1.98;1.00;;;20.90;51.60;;;17.76;56.23;99657.66;522905;28;1012;-82
2023/01/14 13:31:34;;;;;;;2.60;0.93;;;21.00;51.50;;;17.74;56.04;99662.53;526140;28;1046;-81
2023/01/14 13:31:53;;;;;;;2.10;1.10;;;21.10;51.30;;;17.73;56.41;99660.06;519224;28;1233;-83
2023/01/14 13:32:53;;;;;;;2.55;1.05;;;21.10;51.20;;;17.73;56.28;99670.91;523997;28;1056;-82
2023/01/14 13:33:27;;;;;;;2.88;1.00;;;21.20;51.00;;;17.71;56.19;99665.72;478635;28;10452;-81
2023/01/14 13:33:43;;;;;;;2.85;1.38;;;21.20;50.90;;;17.72;56.23;99669.25;509677;28;6106;-80
2023/01/14 13:34:39;;;;;;;2.70;1.33;;;21.30;50.80;;;17.71;56.39;99654.03;522149;28;5279;-78
2023/01/14 13:35:03;;;;;;;0.82;0.82;;;21.30;50.70;;;17.72;56.47;99656.53;509927;28;6509;-81
2023/01/14 13:35:21;;;;;;;3.25;1.10;;;21.30;50.60;;;17.74;56.24;99659.81;513616;28;6166;-79
2023/01/14 13:35:39;;;;;;;4.78;1.25;;;21.30;50.50;;;17.75;56.25;99657.91;525039;28;6360;-81
2023/01/14 13:36:23;;;;;;;2.97;1.20;;;21.30;50.50;;;17.75;56.33;99661.44;526479;28;1100;-78
2023/01/14 13:36:40;;;;;;;1.77;0.90;;;21.40;50.40;;;17.74;56.32;99657.09;498518;28;10586;-80
2023/01/14 13:37:26;;;;;;;2.00;0.95;;;21.40;50.30;;;17.77;56.45;99653.06;495377;28;9373;-78
2023/01/14 13:37:49;;;;;;;1.58;1.05;;;21.50;50.30;;;17.80;56.45;99658.00;497579;28;10009;-79
2023/01/14 13:38:28;;;;;;;1.70;0.82;;;21.40;50.20;;;17.82;56.10;99658.56;495096;28;11794;-81
2023/01/14 13:39:32;;;;;;;1.77;1.17;;;21.50;50.10;;;17.86;56.23;99661.63;525138;28;1101;-80
2023/01/14 13:39:55;;;;;;;1.80;0.90;;;21.60;50.00;;;17.88;56.25;99660.31;522570;28;1492;-80
2023/01/14 13:41:07;;;;;;;2.60;0.90;;;21.50;49.90;;;17.90;56.34;99654.66;527222;28;1115;-83
2023/01/14 13:41:46;;;;;;;2.35;1.10;;;21.70;49.80;;;17.91;55.99;99642.72;490597;28;10502;-82
2023/01/14 13:42:38;;;;;;;3.90;1.13;;;21.60;49.70;;;17.91;55.95;99646.28;509929;28;5972;-77
2023/01/14 13:43:22;;;;;;;1.30;0.98;;;21.70;49.60;;;17.92;56.00;99657.94;499899;28;8507;-83
2023/01/14 13:43:53;;;;;;;1.60;0.80;;;21.70;49.50;;;17.92;56.13;99650.63;506376;28;6455;-81
2023/01/14 13:44:28;;;;;;;1.45;1.00;;;21.70;49.50;;;17.92;55.97;99658.75;510796;28;5953;-82
2023/01/14 13:44:52;;;;;;;1.58;1.10;;;21.80;49.40;;;17.93;56.04;99652.28;504389;28;6197;-82
2023/01/14 13:45:27;;;;;;;1.10;1.00;;;21.80;49.40;;;17.94;55.89;99650.38;522419;28;6293;-85
2023/01/14 13:45:55;;;;;;;2.28;0.98;;;21.80;49.30;;;17.93;56.12;99657.69;509769;28;6368;-81
2023/01/14 13:46:24;;;;;;;1.25;0.90;;;21.80;49.30;;;17.93;55.95;99652.28;512971;28;7443;-80
2023/01/14 13:46:49;;;;;;;1.70;1.00;;;21.80;49.20;;;17.94;55.96;99653.91;476970;28;6029;-81
2023/01/14 13:47:33;;;;;;;1.45;1.13;;;21.80;49.20;;;17.92;56.09;99647.91;482096;28;6603;-79
2023/01/14 13:48:26;;;;;;;1.52;1.00;;;21.80;49.20;;;17.88;56.23;99652.19;445853;28;6915;-81
2023/01/14 13:49:03;;;;;;;1.17;1.00;;;21.80;49.20;;;17.90;56.41;99646.50;500858;29;6738;-81
2023/01/14 13:49:34;;;;;;;1.52;1.08;;;21.90;49.10;;;17.88;56.66;99648.66;487180;29;6004;-81
2023/01/14 13:50:28;;;;;;;3.05;1.13;;;21.90;49.10;;;17.84;56.51;99648.31;500546;29;6050;-84
2023/01/14 13:51:29;;;;;;;1.30;0.98;;;21.90;49.10;;;17.81;56.42;99646.09;505768;28;7563;-84
2023/01/14 13:53:06;;;;;;;2.90;1.00;;;21.90;49.00;;;17.76;56.59;99645.97;481337;28;7159;-83
2023/01/14 13:53:34;;;;;;;3.17;0.90;;;21.90;48.80;;;17.74;56.44;99648.16;465910;29;6273;-81
2023/01/14 13:54:01;;;;;;;1.80;1.00;;;22.00;48.70;;;17.73;56.63;99638.38;495072;29;6374;-85
2023/01/14 13:54:25;;;;;;;1.35;1.02;;;21.90;48.70;;;17.71;56.74;99632.38;508588;28;6051;-79
2023/01/14 13:55:02;;;;;;;1.17;0.93;;;22.00;48.70;;;17.69;56.75;99642.63;510106;28;6377;-78
2023/01/14 13:55:26;;;;;;;1.83;0.90;;;22.00;48.60;;;17.68;56.82;99630.13;508340;28;6118;-80
2023/01/14 13:55:55;;;;;;;1.00;0.90;;;22.00;48.60;;;17.67;56.62;99628.50;506360;28;6209;-78
2023/01/14 13:56:23;;;;;;;1.58;0.80;;;22.00;48.60;;;17.65;56.89;99623.31;510814;28;6069;-81
2023/01/14 13:56:49;;;;;;;1.40;0.90;;;22.00;48.60;;;17.64;56.88;99629.78;509039;28;6072;-81
2023/01/14 13:57:28;;;;;;;0.98;0.90;;;22.00;48.50;;;17.63;56.83;99633.53;507815;28;6466;-80
2023/01/14 13:57:49;;;;;;;4.47;0.98;;;22.00;48.50;;;17.64;56.77;99631.66;508424;28;7013;-77
2023/01/14 13:58:21;;;;;;;2.10;0.98;;;22.00;48.50;;;17.61;56.92;99629.41;510946;28;6486;-83
2023/01/14 13:58:50;;;;;;;1.08;0.98;;;22.00;48.40;;;17.60;56.96;99625.88;502089;28;6244;-83
2023/01/14 14:09:44;;;;;;;1.80;0.80;;;22.00;48.20;;;17.45;57.23;99599.34;430657;29;6113;-83
2023/01/14 14:11:27;;;;;;;1.50;0.80;;;22.00;48.10;;;17.43;57.20;99603.38;428658;28;7677;-85
2023/01/14 14:20:22;;;;;;;0.88;0.73;;;21.90;48.00;;;17.32;57.34;99585.28;441702;29;7152;-79
2023/01/14 14:20:44;;;;;;;0.90;0.80;;;22.00;48.00;;;17.30;57.27;99582.81;497069;29;6317;-81
2023/01/14 14:21:10;;;;;;;1.08;0.98;;;22.00;48.00;;;17.31;57.33;99589.06;496897;29;6278;-81
2023/01/14 14:21:43;;;;;;;1.15;0.90;;;22.00;48.00;;;17.31;57.29;99589.88;500084;29;7358;-81
2023/01/14 14:22:13;;;;;;;0.90;0.70;;;22.00;48.00;;;17.30;57.49;99590.94;509473;28;6251;-84
2023/01/14 14:22:43;;;;;;;0.95;0.90;;;22.00;48.00;;;17.29;57.27;99594.72;511484;28;7025;-82
2023/01/14 14:23:07;;;;;;;1.40;0.80;;;22.00;48.00;;;17.29;57.54;99589.31;510217;28;7734;-82
2023/01/14 14:23:42;;;;;;;0.82;0.82;;;22.00;48.00;;;17.27;57.26;99588.72;503435;28;6325;-83
2023/01/14 14:24:06;;;;;;;1.25;0.75;;;22.00;48.00;;;17.26;57.45;99592.50;519347;28;6127;-83
2023/01/14 14:24:34;;;;;;;1.27;0.77;;;22.00;48.00;;;17.27;57.63;99590.59;511691;28;6289;-82
2023/01/14 14:24:56;;;;;;;0.93;0.82;;;21.90;48.00;;;17.27;57.55;99590.59;520326;28;6103;-80
2023/01/14 14:25:30;;;;;;;0.85;0.85;;;21.90;48.00;;;17.27;57.56;99588.72;510663;28;6291;-83
2023/01/14 14:25:52;;;;;;;0.80;0.80;;;21.90;48.00;;;17.28;57.35;99586.84;509098;28;6132;-83
2023/01/14 14:26:18;;;;;;;1.25;0.88;;;21.90;48.00;;;17.30;57.40;99582.00;498215;28;6140;-81
2023/01/14 14:26:37;;;;;;;0.80;0.80;;;22.00;48.00;;;17.30;57.35;99588.25;519998;28;6023;-81
2023/01/14 14:27:01;;;;;;;0.80;0.80;;;21.90;48.00;;;17.30;57.46;99582.81;510591;28;6045;-82
2023/01/14 14:27:33;;;;;;;0.80;0.80;;;22.00;48.00;;;17.31;57.08;99594.47;507900;28;6160;-82
2023/01/14 14:27:52;;;;;;;1.00;0.90;;;22.00;48.00;;;17.32;57.32;99588.00;514116;28;6225;-84
2023/01/14 14:28:23;;;;;;;1.05;0.80;;;22.00;48.00;;;17.32;57.26;99586.09;520267;28;5951;-80
2023/01/14 14:28:45;;;;;;;1.63;0.80;;;21.90;47.90;;;17.33;57.32;99587.72;517551;28;5955;-82
2023/01/14 14:29:14;;;;;;;1.17;0.80;;;21.90;48.00;;;17.31;57.14;99579.06;521225;28;6485;-81
2023/01/14 14:29:39;;;;;;;0.90;0.90;;;21.90;47.90;;;17.32;57.36;99580.66;509227;28;6307;-82
2023/01/14 14:30:18;;;;;;;1.00;0.90;;;21.90;47.90;;;17.32;57.14;99583.38;509928;28;6171;-80
2023/01/14 14:30:45;;;;;;;0.93;0.93;;;22.00;48.00;;;17.32;57.11;99586.09;497730;28;6062;-80
2023/01/14 14:31:08;;;;;;;1.15;0.90;;;21.90;47.90;;;17.31;57.08;99584.47;515326;28;6204;-81
2023/01/14 14:31:31;;;;;;;1.02;0.80;;;21.90;47.90;;;17.32;57.19;99582.59;513842;28;6314;-78
2023/01/14 14:31:51;;;;;;;1.25;0.90;;;22.00;47.90;;;17.32;56.93;99585.28;518447;28;7270;-78
2023/01/14 14:32:18;;;;;;;0.77;0.75;;;21.90;47.90;;;17.31;57.08;99581.75;492317;28;8163;-83
2023/01/14 14:32:41;;;;;;;0.90;0.70;;;21.90;47.90;;;17.31;57.19;99580.94;509375;28;5791;-77
2023/01/14 14:33:00;;;;;;;0.90;0.90;;;22.00;48.00;;;17.30;57.33;99577.41;512322;28;6548;-80
2023/01/14 14:33:39;;;;;;;1.13;0.90;;;21.90;47.90;;;17.30;57.31;99592.84;523020;28;5604;-78
2023/01/14 14:34:09;;;;;;;0.98;0.77;;;21.90;47.90;;;17.30;57.25;99582.81;502877;28;6197;-81
2023/01/14 14:34:26;;;;;;;1.13;0.82;;;21.90;47.90;;;17.30;57.12;99577.41;521076;28;6000;-80
2023/01/14 14:35:06;;;;;;;1.15;0.90;;;21.90;47.90;;;17.30;57.33;99584.72;522481;28;6040;-81
2023/01/14 14:35:28;;;;;;;0.80;0.80;;;21.90;47.90;;;17.29;57.36;99581.19;517219;28;6484;-80
2023/01/14 14:35:46;;;;;;;0.73;0.73;;;21.90;47.90;;;17.28;57.21;99579.53;513547;28;6254;-80
2023/01/14 14:36:16;;;;;;;0.80;0.80;;;21.90;47.90;;;17.28;57.42;99574.13;520327;28;6034;-80
2023/01/14 14:36:45;;;;;;;0.80;0.80;;;21.90;47.90;;;17.29;57.34;99581.19;511249;28;6176;-82
2023/01/14 14:37:20;;;;;;;0.80;0.80;;;21.90;47.90;;;17.27;57.30;99572.47;498227;28;7212;-80
2023/01/14 14:38:00;;;;;;;0.80;0.80;;;21.90;47.90;;;17.26;57.47;99570.81;507000;28;6364;-80
2023/01/14 14:38:21;;;;;;;0.80;0.80;;;21.90;47.90;;;17.27;57.18;99571.66;491472;28;7280;-81
2023/01/14 14:38:51;;;;;;;0.80;0.80;;;21.90;47.90;;;17.26;57.19;99570.81;499543;28;6978;-78
2023/01/14 14:40:23;;;;;;;1.40;0.80;;;21.90;47.90;;;17.28;57.34;99567.88;440085;29;6049;-81
2023/01/14 14:40:44;;;;;;;0.80;0.80;;;21.90;47.90;;;17.26;57.34;99564.59;485315;28;6603;-79
2023/01/14 14:41:40;;;;;;;1.05;0.98;;;21.90;47.90;;;17.26;57.38;99556.47;478783;28;7402;-84
2023/01/14 14:42:14;;;;;;;1.20;0.80;;;21.90;47.90;;;17.25;57.55;99558.34;469666;28;6034;-82
2023/01/14 14:42:41;;;;;;;0.75;0.68;;;21.90;47.90;;;17.25;57.48;99557.53;507937;28;7524;-81
2023/01/14 14:43:05;;;;;;;0.80;0.80;;;21.90;47.90;;;17.26;57.28;99549.16;512700;28;6270;-83
2023/01/14 14:43:28;;;;;;;1.10;0.85;;;21.90;47.90;;;17.26;57.21;99553.75;495031;28;6254;-83
2023/01/14 14:43:57;;;;;;;1.08;0.90;;;21.90;47.90;;;17.24;57.22;99570.25;508229;28;6243;-83
2023/01/14 14:44:21;;;;;;;1.08;0.88;;;21.90;47.90;;;17.23;57.67;99552.34;506996;28;6282;-81
2023/01/14 14:44:38;;;;;;;1.15;0.98;;;21.90;47.90;;;17.24;57.30;99558.59;517073;28;6396;-81
2023/01/14 14:44:58;;;;;;;0.80;0.80;;;21.90;47.90;;;17.22;57.32;99550.69;517579;28;6071;-81
2023/01/14 14:45:31;;;;;;;0.80;0.80;;;21.90;47.90;;;17.21;57.53;99559.88;516805;28;6511;-85
2023/01/14 14:46:05;;;;;;;1.20;0.80;;;21.90;47.90;;;17.22;57.51;99556.13;516909;28;5728;-83
2023/01/14 14:46:25;;;;;;;1.08;0.98;;;21.90;47.90;;;17.21;57.50;99554.47;497666;28;6360;-80
2023/01/14 14:46:42;;;;;;;0.95;0.95;;;21.90;47.80;;;17.21;57.13;99553.66;515306;28;6573;-82
2023/01/14 14:47:22;;;;;;;0.80;0.80;;;21.90;47.90;;;17.22;57.37;99553.41;509948;28;5551;-79
2023/01/14 14:47:44;;;;;;;1.20;0.82;;;21.90;47.90;;;17.24;57.18;99547.75;513191;28;6127;-80
2023/01/14 14:48:19;;;;;;;0.85;0.70;;;21.90;47.90;;;17.23;57.20;99537.97;513672;28;5996;-80
2023/01/14 14:48:40;;;;;;;1.25;0.90;;;21.90;47.80;;;17.22;57.40;99555.28;515917;28;6730;-78
2023/01/14 14:48:58;;;;;;;1.67;0.80;;;21.90;47.80;;;17.22;57.28;99555.28;519312;28;6339;-78
2023/01/14 14:49:22;;;;;;;1.00;0.80;;;21.90;47.80;;;17.21;57.28;99550.94;518731;28;6101;-80
2023/01/14 14:49:38;;;;;;;0.82;0.82;;;21.90;47.80;;;17.20;57.37;99544.69;509304;28;6233;-81
2023/01/14 14:49:57;;;;;;;0.77;0.77;;;21.80;47.80;;;17.19;57.26;99553.88;520517;28;6382;-79
2023/01/14 14:50:29;;;;;;;0.70;0.70;;;21.90;47.80;;;17.19;57.54;99548.47;520672;28;6191;-80
2023/01/14 14:51:12;;;;;;;0.70;0.70;;;21.90;47.80;;;17.19;57.32;99537.63;514172;28;5963;-81
2023/01/14 14:51:43;;;;;;;0.95;0.77;;;21.90;47.80;;;17.20;57.52;99549.28;495067;28;8043;-81
2023/01/14 14:52:28;;;;;;;1.05;0.80;;;21.80;47.80;;;17.18;57.50;99552.25;505766;28;6126;-80
2023/01/14 14:52:45;;;;;;;0.80;0.80;;;21.90;47.80;;;17.17;57.58;99545.19;472054;28;6276;-82
2023/01/14 14:53:31;;;;;;;0.90;0.90;;;21.90;47.80;;;17.14;57.57;99541.06;509337;28;6003;-81
2023/01/14 14:53:50;;;;;;;0.85;0.80;;;21.90;47.80;;;17.14;57.53;99551.06;509934;28;6336;-81
2023/01/14 14:54:29;;;;;;;0.80;0.80;;;21.90;47.80;;;17.15;57.64;99555.44;499933;28;5543;-81
2023/01/14 14:55:03;;;;;;;0.85;0.80;;;21.90;47.80;;;17.16;57.55;99548.94;487502;28;5972;-80
2023/01/14 14:55:24;;;;;;;1.05;0.75;;;21.80;47.80;;;17.19;57.11;99548.47;498766;28;7159;-81
2023/01/14 14:56:19;;;;;;;0.73;0.70;;;21.80;47.80;;;17.24;57.19;99545.03;506054;28;7243;-80
2023/01/14 14:56:49;;;;;;;0.80;0.80;;;21.80;47.80;;;17.28;57.30;99546.19;500305;28;7494;-78
2023/01/14 14:57:18;;;;;;;0.82;0.82;;;21.90;47.80;;;17.30;57.16;99550.31;503624;28;6530;-82
2023/01/14 14:57:40;;;;;;;0.85;0.85;;;21.90;47.80;;;17.33;56.88;99536.25;498553;28;6146;-80
2023/01/14 14:58:04;;;;;;;0.70;0.70;;;21.80;47.80;;;17.36;56.79;99532.25;496079;28;6222;-80
2023/01/14 14:58:25;;;;;;;0.80;0.80;;;21.90;47.80;;;17.38;56.82;99547.19;494539;28;6247;-83
2023/01/14 14:58:58;;;;;;;0.93;0.82;;;21.90;47.80;;;17.42;56.85;99544.81;516214;28;5992;-83
2023/01/14 14:59:14;;;;;;;0.80;0.80;;;21.80;47.80;;;17.42;56.50;99542.94;503260;28;6899;-82
2023/01/14 14:59:37;;;;;;;0.75;0.75;;;21.90;47.80;;;17.45;56.70;99541.63;501212;28;5340;-81
2023/01/14 15:00:15;;;;;;;0.85;0.85;;;21.90;47.80;;;17.45;56.63;99542.44;495911;28;6857;-83
2023/01/14 15:00:51;;;;;;;0.85;0.70;;;21.80;47.90;;;17.46;56.47;99543.28;483547;28;5608;-85
2023/01/14 15:01:08;;;;;;;0.75;0.75;;;21.80;47.80;;;17.47;56.54;99544.91;497544;28;6126;-82
2023/01/14 15:04:31;;;;;;;1.08;1.00;;;21.80;47.90;;;17.49;56.54;99542.78;435171;29;6310;-83
2023/01/14 15:05:05;;;;;;;0.77;0.77;;;21.90;47.90;;;17.49;56.35;99540.06;466933;28;6507;-81
2023/01/14 15:06:17;;;;;;;0.70;0.70;;;21.90;47.90;;;17.48;56.48;99533.00;450147;29;6113;-79
2023/01/14 15:07:04;;;;;;;0.60;0.60;;;21.90;47.80;;;17.48;56.57;99538.44;463989;29;6183;-82
2023/01/14 15:08:06;;;;;;;1.90;0.82;;;21.90;47.80;;;17.45;56.74;99536.22;485539;29;6255;-81
2023/01/14 15:08:33;;;;;;;1.10;0.90;;;21.90;47.80;;;17.45;56.77;99539.75;434687;29;6991;-83
2023/01/14 15:09:03;;;;;;;0.80;0.80;;;21.90;47.80;;;17.43;56.62;99525.63;485818;29;6125;-81
2023/01/14 15:09:28;;;;;;;0.95;0.88;;;21.90;47.80;;;17.43;56.51;99522.09;504290;29;7589;-80
2023/01/14 15:09:49;;;;;;;0.80;0.65;;;21.90;47.80;;;17.43;56.80;99532.91;497575;29;6116;-81
2023/01/14 15:10:15;;;;;;;0.70;0.70;;;21.90;47.80;;;17.43;56.71;99539.16;490629;28;7665;-81
2023/01/14 15:10:39;;;;;;;0.90;0.90;;;21.90;47.80;;;17.43;56.84;99536.44;499231;28;6051;-79
2023/01/14 15:10:58;;;;;;;0.95;0.90;;;21.90;47.80;;;17.42;56.52;99523.16;468780;28;6108;-80
2023/01/14 15:11:29;;;;;;;1.05;0.85;;;21.90;47.80;;;17.41;56.71;99525.03;489614;28;6274;-82
2023/01/14 15:11:50;;;;;;;1.58;0.80;;;21.90;47.80;;;17.41;56.76;99526.91;497407;28;6181;-82
2023/01/14 15:12:13;;;;;;;0.70;0.68;;;21.90;47.70;;;17.42;56.74;99529.38;508624;28;6931;-82
2023/01/14 15:12:32;;;;;;;1.15;0.70;;;21.90;47.70;;;17.41;56.83;99532.34;499607;28;6507;-82
2023/01/14 15:12:54;;;;;;;1.10;0.75;;;21.90;47.80;;;17.40;56.89;99520.69;498134;29;6247;-80
2023/01/14 15:13:34;;;;;;;1.02;0.73;;;21.90;47.70;;;17.41;56.93;99524.22;486904;29;7928;-82
2023/01/14 15:14:28;;;;;;;1.60;0.88;;;22.00;47.70;;;17.39;56.79;99526.34;465964;28;7875;-83
2023/01/14 15:15:00;;;;;;;0.80;0.80;;;22.00;47.80;;;17.37;57.03;99521.16;483790;28;6926;-81
2023/01/14 15:15:21;;;;;;;1.00;0.70;;;21.90;47.70;;;17.37;56.86;99517.63;502966;29;7296;-80
2023/01/14 15:15:38;;;;;;;0.95;0.77;;;21.90;47.70;;;17.38;57.07;99524.69;501882;29;6247;-79
2023/01/14 15:16:14;;;;;;;1.02;0.90;;;22.00;47.70;;;17.35;56.79;99525.19;507532;29;6079;-80
2023/01/14 15:16:34;;;;;;;0.90;0.70;;;21.90;47.70;;;17.35;57.03;99514.34;507458;28;6217;-80
2023/01/14 15:16:52;;;;;;;0.68;0.68;;;21.90;47.70;;;17.36;56.97;99541.19;509587;28;6204;-79
2023/01/14 15:17:18;;;;;;;0.80;0.80;;;21.90;47.70;;;17.35;56.83;99520.59;511606;28;6167;-80
2023/01/14 15:17:35;;;;;;;1.10;0.90;;;21.90;47.70;;;17.34;57.29;99524.34;504696;29;6651;-80
2023/01/14 15:18:05;;;;;;;1.17;0.80;;;21.90;47.70;;;17.34;56.99;99521.66;505796;29;6050;-78
2023/01/14 15:18:39;;;;;;;0.80;0.70;;;21.90;47.70;;;17.33;56.91;99520.00;497985;29;6394;-79
2023/01/14 15:19:01;;;;;;;1.05;0.95;;;21.90;47.70;;;17.34;56.86;99531.66;500052;29;6189;-81
2023/01/14 15:19:20;;;;;;;1.27;0.77;;;22.00;47.70;;;17.32;56.90;99521.06;501255;29;6666;-82
2023/01/14 15:19:38;;;;;;;1.60;0.80;;;21.90;47.70;;;17.33;57.19;99524.59;505808;29;6276;-78
2023/01/14 15:19:57;;;;;;;0.98;0.90;;;21.90;47.70;;;17.32;57.11;99526.47;497512;29;7805;-79
2023/01/14 15:20:19;;;;;;;1.05;0.98;;;21.90;47.70;;;17.32;57.23;99518.34;497809;29;6279;-81
2023/01/14 15:20:37;;;;;;;1.48;0.95;;;21.90;47.70;;;17.31;56.96;99507.78;497536;29;6332;-80
2023/01/14 15:20:55;;;;;;;0.75;0.75;;;21.90;47.70;;;17.31;57.06;99518.63;493161;29;6286;-80
2023/01/14 15:21:19;;;;;;;1.00;0.90;;;21.90;47.70;;;17.31;57.40;99518.63;487594;29;6323;-79
2023/01/14 15:21:37;;;;;;;1.05;0.70;;;21.90;47.70;;;17.31;56.97;99524.06;488283;29;5894;-81
2023/01/14 15:22:02;;;;;;;1.27;0.75;;;21.90;47.70;;;17.31;57.14;99530.28;502791;29;7529;-83
2023/01/14 15:22:21;;;;;;;1.05;0.75;;;21.90;47.70;;;17.30;57.22;99517.81;506963;29;6275;-78
2023/01/14 15:22:39;;;;;;;1.15;0.70;;;21.90;47.70;;;17.30;56.97;99515.09;507791;29;6023;-79
2023/01/14 15:22:56;;;;;;;1.02;0.80;;;21.90;47.70;;;17.30;57.00;99517.00;501734;29;6203;-77
2023/01/14 15:23:17;;;;;;;1.70;0.98;;;21.90;47.70;;;17.29;57.01;99518.88;501974;29;6100;-77
2023/01/14 15:23:40;;;;;;;1.35;0.80;;;21.90;47.70;;;17.29;57.17;99518.06;494635;29;6298;-78
2023/01/14 15:24:03;;;;;;;1.13;0.70;;;21.90;47.70;;;17.28;57.19;99502.88;497074;29;6355;-81
2023/01/14 15:24:32;;;;;;;1.85;0.60;;;21.90;47.70;;;17.28;57.19;99516.41;497833;29;6569;-78
2023/01/14 15:24:52;;;;;;;1.10;0.95;;;21.90;47.70;;;17.27;57.33;99512.88;497957;29;6089;-81
2023/01/14 15:25:17;;;;;;;1.40;0.80;;;21.90;47.70;;;17.28;57.02;99514.53;501977;29;6228;-82
2023/01/14 15:25:34;;;;;;;0.70;0.70;;;21.90;47.70;;;17.28;57.00;99506.41;507727;29;6273;-80
2023/01/14 15:25:52;;;;;;;1.20;0.70;;;21.90;47.70;;;17.28;57.08;99514.53;505700;29;6130;-81
2023/01/14 15:26:18;;;;;;;1.77;0.88;;;21.90;47.70;;;17.28;57.06;99513.69;506114;29;5356;-79
2023/01/14 15:26:37;;;;;;;1.10;0.77;;;21.90;47.70;;;17.27;57.19;99509.34;503298;29;6352;-81
2023/01/14 15:27:03;;;;;;;1.35;0.90;;;21.90;47.70;;;17.26;57.33;99508.53;501900;29;5956;-83
2023/01/14 15:27:29;;;;;;;1.58;0.80;;;21.90;47.70;;;17.25;57.05;99509.59;502912;29;7159;-78
2023/01/14 15:27:50;;;;;;;1.33;0.80;;;21.90;47.70;;;17.25;57.13;99511.47;486678;29;6209;-81
2023/01/14 15:28:13;;;;;;;0.88;0.80;;;21.90;47.70;;;17.26;57.10;99513.13;494134;29;6943;-80
2023/01/14 15:28:36;;;;;;;0.70;0.70;;;21.90;47.70;;;17.25;57.10;99504.16;498395;29;6259;-78
2023/01/14 15:30:33;;;;;;;1.10;0.70;;;21.80;47.80;;;17.24;57.58;99504.41;438094;29;6990;-83
2023/01/14 15:30:58;;;;;;;1.00;0.70;;;21.90;47.80;;;17.23;57.10;99502.75;452558;29;6889;-84
2023/01/14 15:31:27;;;;;;;1.25;0.80;;;21.80;47.80;;;17.23;57.29;99498.16;475319;29;6331;-81
2023/01/14 15:31:44;;;;;;;0.70;0.70;;;21.90;47.80;;;17.22;57.17;99499.25;496452;29;6367;-79
2023/01/14 15:32:41;;;;;;;0.80;0.80;;;21.90;47.80;;;17.22;57.41;99501.13;499820;29;6528;-79
2023/01/14 15:32:57;;;;;;;0.75;0.70;;;21.80;47.80;;;17.22;57.21;99501.13;502377;29;6780;-80
2023/01/14 15:33:34;;;;;;;0.82;0.73;;;21.90;47.80;;;17.21;57.48;99500.31;508192;28;5621;-81
2023/01/14 15:34:20;;;;;;;0.70;0.70;;;21.90;47.80;;;17.21;57.41;99500.31;493399;29;6211;-80
2023/01/14 15:34:36;;;;;;;1.38;0.70;;;21.80;47.80;;;17.21;57.41;99503.00;489377;28;6741;-79
2023/01/14 15:35:05;;;;;;;0.75;0.70;;;21.80;47.80;;;17.21;57.11;99492.19;506990;29;5348;-79
2023/01/14 15:35:33;;;;;;;0.70;0.68;;;21.90;47.80;;;17.20;57.44;99498.66;477290;28;7411;-77
2023/01/14 15:36:00;;;;;;;0.80;0.63;;;21.80;47.80;;;17.20;57.57;99495.13;501953;28;6288;-79
2023/01/14 15:36:20;;;;;;;0.80;0.80;;;21.80;47.80;;;17.19;57.43;99494.31;505019;29;6795;-79
2023/01/14 15:36:39;;;;;;;1.10;0.90;;;21.90;47.80;;;17.18;57.57;99492.66;507224;29;7475;-81
2023/01/14 15:37:13;;;;;;;1.25;0.90;;;21.80;47.80;;;17.18;57.33;99498.06;505918;29;7358;-78
2023/01/14 15:37:30;;;;;;;1.50;0.90;;;21.90;47.80;;;17.19;57.26;99491.59;503252;28;7431;-82
2023/01/14 15:37:56;;;;;;;1.52;0.85;;;21.80;47.80;;;17.20;57.39;99485.13;494410;28;5349;-80
2023/01/14 15:38:17;;;;;;;1.27;0.90;;;21.80;47.80;;;17.20;57.23;99495.94;508423;28;6272;-82
2023/01/14 15:38:36;;;;;;;0.70;0.70;;;21.80;47.80;;;17.20;57.27;99490.53;508847;28;8203;-81
2023/01/14 15:38:54;;;;;;;0.80;0.80;;;21.80;47.80;;;17.21;57.18;99497.59;507997;28;7393;-81
2023/01/14 15:39:13;;;;;;;0.70;0.70;;;21.80;47.80;;;17.21;57.52;99485.94;496381;29;5811;-79
2023/01/14 15:39:34;;;;;;;0.90;0.80;;;21.80;47.80;;;17.20;57.44;99490.53;505508;28;5966;-82
2023/01/14 15:39:52;;;;;;;0.80;0.80;;;21.80;47.80;;;17.21;57.31;99484.06;506282;28;6196;-79
2023/01/14 15:40:14;;;;;;;0.80;0.80;;;21.80;47.80;;;17.22;57.43;99487.56;500033;28;6235;-81
2023/01/14 15:40:42;;;;;;;0.85;0.75;;;21.80;47.80;;;17.20;57.10;99495.94;507346;28;6017;-78
2023/01/14 15:41:16;;;;;;;0.70;0.70;;;21.80;47.80;;;17.21;57.12;99497.59;508562;28;8370;-80
2023/01/14 15:41:37;;;;;;;0.80;0.60;;;21.80;47.80;;;17.19;57.10;99486.19;474026;28;8074;-83
2023/01/14 15:42:05;;;;;;;0.80;0.80;;;21.80;47.80;;;17.18;57.47;99489.13;488854;28;6034;-81
2023/01/14 15:42:32;;;;;;;0.75;0.70;;;21.80;47.80;;;17.18;57.43;99484.53;493652;28;6869;-83
2023/01/14 15:45:05;;;;;;;;;;;;;;;;;;;;;
2023/01/14 15:46:04;;;;;;;1.55;0.85;;;21.80;47.80;;;17.16;57.32;99483.13;481364;29;6441;-82
2023/01/14 15:46:26;;;;;;;1.10;0.70;;;21.80;47.80;;;17.16;57.65;99483.13;486433;29;6340;-80
2023/01/14 15:46:44;;;;;;;1.98;0.70;;;21.80;47.80;;;17.16;57.28;99489.38;498723;29;6160;-79
2023/01/14 15:47:01;;;;;;;1.08;0.80;;;21.80;47.80;;;17.17;57.38;99471.22;503463;29;6063;-82
2023/01/14 15:47:21;;;;;;;0.85;0.80;;;21.80;47.80;;;17.16;57.33;99472.31;502898;29;6121;-79
2023/01/14 15:47:39;;;;;;;1.20;0.80;;;21.80;47.80;;;17.18;57.21;99475.59;498144;29;6475;-79
2023/01/14 15:48:00;;;;;;;1.10;0.70;;;21.80;47.80;;;17.16;57.54;99478.53;503614;29;5939;-77
2023/01/14 15:48:20;;;;;;;0.90;0.75;;;21.80;47.80;;;17.16;57.40;99470.41;505192;29;7311;-81
2023/01/14 15:48:44;;;;;;;0.70;0.70;;;21.80;47.80;;;17.17;57.62;99473.94;504618;29;6741;-81
2023/01/14 15:49:10;;;;;;;1.00;0.73;;;21.80;47.80;;;17.16;57.29;99478.53;503401;29;7611;-79
2023/01/14 15:49:30;;;;;;;0.73;0.70;;;21.80;47.80;;;17.17;57.44;99468.53;501865;29;6459;-79
2023/01/14 15:49:49;;;;;;;0.68;0.68;;;21.80;47.80;;;17.17;57.45;99471.22;505441;29;6229;-78
2023/01/14 15:50:22;;;;;;;0.90;0.75;;;21.80;47.80;;;17.15;57.56;99482.31;486917;29;6062;-81
2023/01/14 15:50:43;;;;;;;0.80;0.80;;;21.80;47.80;;;17.14;57.49;99481.50;499325;29;6345;-79
2023/01/14 15:51:02;;;;;;;1.58;0.90;;;21.80;47.80;;;17.15;57.58;99482.31;488393;29;6179;-81
2023/01/14 15:51:19;;;;;;;1.58;0.75;;;21.80;47.80;;;17.13;57.31;99474.44;499263;29;6230;-80
2023/01/14 15:51:42;;;;;;;2.03;0.80;;;21.80;47.80;;;17.14;57.53;99480.66;495750;29;7493;-81
2023/01/14 15:52:00;;;;;;;0.90;0.70;;;21.80;47.80;;;17.14;57.46;99480.66;498133;29;6293;-78
2023/01/14 15:52:35;;;;;;;3.75;0.88;;;21.80;47.90;;;17.12;57.18;99472.78;499962;29;6812;-78